Red Lake Falls, Minnesota
Current Conditions -  °F | °C
As of 6:55 AM on Tuesday 21 Oct 2014 (Local Time) from KTVF Reporting Station
Clear Clear  
Wind Chill: 29°   Ceiling: Unl
Heat Index: 36°   Visibility: 10mi
Dew Point: 34°   Wind: 9mph
Humidity: 93%   Direction: 130°SE
Pressure: 30.07"   Gusts: NA
Location:  47.88°N, 96.27°W
Report Text: KTVF 211155Z AUTO 13008KT 10SM CLR 02/01 A3007 RMK AO1 10030 20020 57003
Loading
Personal Weather Stations






























Interactive Weather Map
Tropical Storm Tracking
New forecast layout! Learn more

10-Day Weather Forecast

Advertisements
Track Severe Weather on mobile